Sand Creek, Michigan
Current Conditions -  °F | °C
As of 10:53 AM on Thursday 23 Oct 2014 (Local Time) from KADG Reporting Station
Clear Clear  
Wind Chill: 47°   Ceiling: Unl
Heat Index: 47°   Visibility: 10mi
Dew Point: 41°   Wind: 3mph
Humidity: 80%   Direction: 290°WNW
Pressure: 30.26"   Gusts: NA
Location:  41.83°N, 84.1°W
Report Text: KADG 231453Z AUTO 29003KT 10SM CLR 08/05 A3026 RMK AO2 SLP255 T00830050 52002
Loading
Personal Weather Stations






























Interactive Weather Map
Tropical Storm Tracking
New forecast layout! Learn more

10-Day Weather Forecast

Advertisements
Track Severe Weather on mobile